sensor_id;sensor_type;location;lat;lon;timestamp;pressure;altitude;pressure_sealevel;temperature;humidity
50065;BME280;64524;47.848;-122.338;2022-10-26T00:01:23;100846.95;;;10.49;100.00
50065;BME280;64524;47.848;-122.338;2022-10-26T00:03:54;100841.73;;;10.48;100.00
50065;BME280;64524;47.848;-122.338;2022-10-26T00:06:24;100838.41;;;10.45;100.00
50065;BME280;64524;47.848;-122.338;2022-10-26T00:08:55;100829.52;;;10.41;100.00
50065;BME280;64524;47.848;-122.338;2022-10-26T00:11:24;100825.65;;;10.36;100.00
50065;BME280;64524;47.848;-122.338;2022-10-26T00:13:52;100822.68;;;10.35;100.00
50065;BME280;64524;47.848;-122.338;2022-10-26T00:16:24;100816.94;;;10.33;100.00
50065;BME280;64524;47.848;-122.338;2022-10-26T00:18:53;100807.71;;;10.31;100.00
50065;BME280;64524;47.848;-122.338;2022-10-26T00:21:21;100802.65;;;10.28;100.00
50065;BME280;64524;47.848;-122.338;2022-10-26T00:23:50;100805.93;;;10.28;100.00
50065;BME280;64524;47.848;-122.338;2022-10-26T00:26:18;100800.36;;;10.27;100.00
50065;BME280;64524;47.848;-122.338;2022-10-26T00:28:46;100795.90;;;10.28;100.00
50065;BME280;64524;47.848;-122.338;2022-10-26T00:31:16;100793.47;;;10.29;100.00
50065;BME280;64524;47.848;-122.338;2022-10-26T00:33:45;100789.86;;;10.30;100.00
50065;BME280;64524;47.848;-122.338;2022-10-26T00:36:13;100773.42;;;10.30;100.00
50065;BME280;64524;47.848;-122.338;2022-10-26T00:38:51;100772.23;;;10.31;100.00
50065;BME280;64524;47.848;-122.338;2022-10-26T00:41:31;100763.73;;;10.30;100.00
50065;BME280;64524;47.848;-122.338;2022-10-26T00:43:59;100764.73;;;10.29;100.00
50065;BME280;64524;47.848;-122.338;2022-10-26T00:46:35;100760.58;;;10.29;100.00
50065;BME280;64524;47.848;-122.338;2022-10-26T00:49:15;100758.35;;;10.30;100.00
50065;BME280;64524;47.848;-122.338;2022-10-26T00:51:50;100744.90;;;10.32;100.00
50065;BME280;64524;47.848;-122.338;2022-10-26T00:54:20;100731.02;;;10.31;100.00
50065;BME280;64524;47.848;-122.338;2022-10-26T00:56:50;100721.34;;;10.31;100.00
50065;BME280;64524;47.848;-122.338;2022-10-26T00:59:20;100716.27;;;10.29;100.00
50065;BME280;64524;47.848;-122.338;2022-10-26T01:01:50;100718.09;;;10.24;100.00
50065;BME280;64524;47.848;-122.338;2022-10-26T01:04:19;100715.23;;;10.16;100.00
50065;BME280;64524;47.848;-122.338;2022-10-26T01:06:48;100717.77;;;10.12;100.00
50065;BME280;64524;47.848;-122.338;2022-10-26T01:09:18;100723.56;;;10.05;100.00
50065;BME280;64524;47.848;-122.338;2022-10-26T01:11:47;100736.37;;;9.94;100.00
50065;BME280;64524;47.848;-122.338;2022-10-26T01:14:17;100739.52;;;9.85;100.00
50065;BME280;64524;47.848;-122.338;2022-10-26T01:17:11;100750.05;;;9.83;100.00
50065;BME280;64524;47.848;-122.338;2022-10-26T01:25:14;100774.77;;;9.71;100.00
50065;BME280;64524;47.848;-122.338;2022-10-26T01:27:49;100773.20;;;9.70;100.00
50065;BME280;64524;47.848;-122.338;2022-10-26T01:36:17;100764.79;;;9.63;100.00
50065;BME280;64524;47.848;-122.338;2022-10-26T01:41:53;100759.45;;;9.55;100.00
50065;BME280;64524;47.848;-122.338;2022-10-26T01:44:33;100764.27;;;9.53;100.00
50065;BME280;64524;47.848;-122.338;2022-10-26T01:47:08;100769.79;;;9.52;100.00
50065;BME280;64524;47.848;-122.338;2022-10-26T01:49:45;100775.12;;;9.51;100.00
50065;BME280;64524;47.848;-122.338;2022-10-26T01:52:14;100779.78;;;9.50;100.00
50065;BME280;64524;47.848;-122.338;2022-10-26T01:54:42;100781.14;;;9.49;100.00
50065;BME280;64524;47.848;-122.338;2022-10-26T01:57:13;100781.34;;;9.50;100.00
50065;BME280;64524;47.848;-122.338;2022-10-26T02:00:02;100781.36;;;9.52;100.00
50065;BME280;64524;47.848;-122.338;2022-10-26T02:05:40;100782.89;;;9.50;100.00
50065;BME280;64524;47.848;-122.338;2022-10-26T02:08:47;100782.28;;;9.45;100.00
50065;BME280;64524;47.848;-122.338;2022-10-26T02:24:47;100774.69;;;9.26;100.00
50065;BME280;64524;47.848;-122.338;2022-10-26T02:27:23;100775.50;;;9.23;100.00
50065;BME280;64524;47.848;-122.338;2022-10-26T02:29:54;100772.00;;;9.20;100.00
50065;BME280;64524;47.848;-122.338;2022-10-26T02:32:26;100779.44;;;9.20;100.00
50065;BME280;64524;47.848;-122.338;2022-10-26T02:34:58;100782.91;;;9.22;100.00
50065;BME280;64524;47.848;-122.338;2022-10-26T02:37:27;100786.39;;;9.23;100.00
50065;BME280;64524;47.848;-122.338;2022-10-26T02:39:57;100787.65;;;9.26;100.00
50065;BME280;64524;47.848;-122.338;2022-10-26T02:42:28;100789.23;;;9.27;100.00
50065;BME280;64524;47.848;-122.338;2022-10-26T02:45:03;100783.52;;;9.26;100.00
50065;BME280;64524;47.848;-122.338;2022-10-26T02:47:33;100786.43;;;9.25;100.00
50065;BME280;64524;47.848;-122.338;2022-10-26T02:50:03;100782.58;;;9.22;100.00
50065;BME280;64524;47.848;-122.338;2022-10-26T02:52:54;100781.70;;;9.22;100.00
50065;BME280;64524;47.848;-122.338;2022-10-26T02:55:24;100784.13;;;9.22;100.00
50065;BME280;64524;47.848;-122.338;2022-10-26T02:58:00;100787.29;;;9.24;100.00
50065;BME280;64524;47.848;-122.338;2022-10-26T03:00:32;100787.48;;;9.26;100.00
50065;BME280;64524;47.848;-122.338;2022-10-26T03:03:00;100790.25;;;9.26;100.00
50065;BME280;64524;47.848;-122.338;2022-10-26T03:05:31;100790.70;;;9.23;100.00
50065;BME280;64524;47.848;-122.338;2022-10-26T03:08:00;100788.05;;;9.19;100.00
50065;BME280;64524;47.848;-122.338;2022-10-26T03:10:29;100786.64;;;9.18;100.00
50065;BME280;64524;47.848;-122.338;2022-10-26T03:12:59;100787.50;;;9.18;100.00
50065;BME280;64524;47.848;-122.338;2022-10-26T03:15:28;100780.06;;;9.17;100.00
50065;BME280;64524;47.848;-122.338;2022-10-26T03:17:57;100782.15;;;9.18;100.00
50065;BME280;64524;47.848;-122.338;2022-10-26T03:20:26;100778.21;;;9.19;100.00
50065;BME280;64524;47.848;-122.338;2022-10-26T03:22:55;100784.61;;;9.20;100.00
50065;BME280;64524;47.848;-122.338;2022-10-26T03:25:26;100783.21;;;9.19;100.00
50065;BME280;64524;47.848;-122.338;2022-10-26T03:28:00;100784.59;;;9.19;100.00
50065;BME280;64524;47.848;-122.338;2022-10-26T03:30:29;100783.55;;;9.18;100.00
50065;BME280;64524;47.848;-122.338;2022-10-26T03:32:59;100785.79;;;9.18;100.00
50065;BME280;64524;47.848;-122.338;2022-10-26T03:35:27;100788.41;;;9.19;100.00
50065;BME280;64524;47.848;-122.338;2022-10-26T03:37:56;100786.02;;;9.20;100.00
50065;BME280;64524;47.848;-122.338;2022-10-26T03:40:25;100787.39;;;9.20;100.00
50065;BME280;64524;47.848;-122.338;2022-10-26T03:42:54;100789.64;;;9.21;100.00
50065;BME280;64524;47.848;-122.338;2022-10-26T03:45:22;100788.26;;;9.20;100.00
50065;BME280;64524;47.848;-122.338;2022-10-26T03:47:51;100786.36;;;9.21;100.00
50065;BME280;64524;47.848;-122.338;2022-10-26T03:50:21;100792.55;;;9.19;100.00
50065;BME280;64524;47.848;-122.338;2022-10-26T03:52:50;100794.13;;;9.20;100.00
50065;BME280;64524;47.848;-122.338;2022-10-26T03:55:19;100791.71;;;9.21;100.00
50065;BME280;64524;47.848;-122.338;2022-10-26T03:57:47;100796.41;;;9.23;100.00
50065;BME280;64524;47.848;-122.338;2022-10-26T04:00:17;100801.50;;;9.26;100.00
50065;BME280;64524;47.848;-122.338;2022-10-26T04:02:52;100803.94;;;9.28;100.00
50065;BME280;64524;47.848;-122.338;2022-10-26T04:05:22;100810.52;;;9.28;100.00
50065;BME280;64524;47.848;-122.338;2022-10-26T04:07:59;100811.91;;;9.29;100.00
50065;BME280;64524;47.848;-122.338;2022-10-26T04:10:31;100814.35;;;9.30;100.00
50065;BME280;64524;47.848;-122.338;2022-10-26T04:13:03;100817.27;;;9.29;100.00
50065;BME280;64524;47.848;-122.338;2022-10-26T04:15:31;100824.03;;;9.30;100.00
50065;BME280;64524;47.848;-122.338;2022-10-26T04:18:01;100827.66;;;9.30;100.00
50065;BME280;64524;47.848;-122.338;2022-10-26T04:20:31;100834.23;;;9.31;100.00
50065;BME280;64524;47.848;-122.338;2022-10-26T04:23:03;100837.91;;;9.33;100.00
50065;BME280;64524;47.848;-122.338;2022-10-26T04:25:33;100836.83;;;9.31;100.00
50065;BME280;64524;47.848;-122.338;2022-10-26T04:28:08;100842.08;;;9.33;100.00
50065;BME280;64524;47.848;-122.338;2022-10-26T04:30:37;100841.98;;;9.37;100.00
50065;BME280;64524;47.848;-122.338;2022-10-26T04:33:06;100846.02;;;9.41;100.00
50065;BME280;64524;47.848;-122.338;2022-10-26T04:35:35;100849.30;;;9.40;100.00
50065;BME280;64524;47.848;-122.338;2022-10-26T04:38:05;100850.30;;;9.39;100.00
50065;BME280;64524;47.848;-122.338;2022-10-26T04:40:34;100849.44;;;9.39;100.00
50065;BME280;64524;47.848;-122.338;2022-10-26T04:43:03;100856.15;;;9.38;100.00
50065;BME280;64524;47.848;-122.338;2022-10-26T04:45:32;100858.36;;;9.35;100.00
50065;BME280;64524;47.848;-122.338;2022-10-26T04:48:05;100857.64;;;9.34;100.00
50065;BME280;64524;47.848;-122.338;2022-10-26T04:50:34;100863.49;;;9.33;100.00
50065;BME280;64524;47.848;-122.338;2022-10-26T04:53:04;100868.81;;;9.30;100.00
50065;BME280;64524;47.848;-122.338;2022-10-26T04:55:33;100866.67;;;9.28;100.00
50065;BME280;64524;47.848;-122.338;2022-10-26T04:58:02;100865.60;;;9.26;100.00
50065;BME280;64524;47.848;-122.338;2022-10-26T05:00:32;100869.20;;;9.25;100.00
50065;BME280;64524;47.848;-122.338;2022-10-26T05:03:05;100872.61;;;9.21;100.00
50065;BME280;64524;47.848;-122.338;2022-10-26T05:05:35;100874.17;;;9.22;100.00
50065;BME280;64524;47.848;-122.338;2022-10-26T05:08:04;100879.07;;;9.25;100.00
50065;BME280;64524;47.848;-122.338;2022-10-26T05:10:33;100884.80;;;9.27;100.00
50065;BME280;64524;47.848;-122.338;2022-10-26T05:13:02;100886.58;;;9.28;100.00
50065;BME280;64524;47.848;-122.338;2022-10-26T05:15:31;100891.29;;;9.31;100.00
50065;BME280;64524;47.848;-122.338;2022-10-26T05:18:02;100892.51;;;9.31;100.00
50065;BME280;64524;47.848;-122.338;2022-10-26T05:20:34;100895.42;;;9.31;100.00
50065;BME280;64524;47.848;-122.338;2022-10-26T05:23:04;100895.92;;;9.29;100.00
50065;BME280;64524;47.848;-122.338;2022-10-26T05:25:35;100899.71;;;9.28;100.00
50065;BME280;64524;47.848;-122.338;2022-10-26T05:28:08;100901.27;;;9.28;100.00
50065;BME280;64524;47.848;-122.338;2022-10-26T05:30:39;100901.21;;;9.26;100.00
50065;BME280;64524;47.848;-122.338;2022-10-26T05:33:09;100905.48;;;9.22;100.00
50065;BME280;64524;47.848;-122.338;2022-10-26T05:35:39;100905.59;;;9.20;100.00
50065;BME280;64524;47.848;-122.338;2022-10-26T05:38:09;100906.99;;;9.20;100.00
50065;BME280;64524;47.848;-122.338;2022-10-26T05:40:37;100894.35;;;9.19;100.00
50065;BME280;64524;47.848;-122.338;2022-10-26T05:43:05;100884.59;;;9.15;100.00
50065;BME280;64524;47.848;-122.338;2022-10-26T05:45:34;100883.83;;;9.12;100.00
50065;BME280;64524;47.848;-122.338;2022-10-26T05:48:02;100881.20;;;9.10;100.00
50065;BME280;64524;47.848;-122.338;2022-10-26T05:50:30;100871.67;;;9.09;100.00
50065;BME280;64524;47.848;-122.338;2022-10-26T05:52:59;100863.84;;;9.07;100.00
50065;BME280;64524;47.848;-122.338;2022-10-26T05:55:28;100862.06;;;9.04;100.00
50065;BME280;64524;47.848;-122.338;2022-10-26T05:57:57;100864.63;;;9.02;100.00
50065;BME280;64524;47.848;-122.338;2022-10-26T06:00:27;100869.83;;;9.03;100.00
50065;BME280;64524;47.848;-122.338;2022-10-26T06:03:15;100874.46;;;9.01;100.00
50065;BME280;64524;47.848;-122.338;2022-10-26T06:05:55;100880.83;;;9.00;100.00
50065;BME280;64524;47.848;-122.338;2022-10-26T06:08:27;100882.75;;;9.02;100.00
50065;BME280;64524;47.848;-122.338;2022-10-26T06:10:56;100890.35;;;9.02;100.00
50065;BME280;64524;47.848;-122.338;2022-10-26T06:13:30;100890.17;;;9.01;100.00
50065;BME280;64524;47.848;-122.338;2022-10-26T06:16:19;100892.05;;;9.00;100.00
50065;BME280;64524;47.848;-122.338;2022-10-26T06:21:35;100897.88;;;8.98;100.00
50065;BME280;64524;47.848;-122.338;2022-10-26T06:32:12;100903.76;;;8.90;100.00
50065;BME280;64524;47.848;-122.338;2022-10-26T06:34:46;100907.19;;;8.89;100.00
50065;BME280;64524;47.848;-122.338;2022-10-26T06:37:16;100904.42;;;8.89;100.00
50065;BME280;64524;47.848;-122.338;2022-10-26T06:39:46;100904.08;;;8.89;100.00
50065;BME280;64524;47.848;-122.338;2022-10-26T06:42:20;100907.33;;;8.88;100.00
50065;BME280;64524;47.848;-122.338;2022-10-26T06:44:49;100908.40;;;8.89;100.00
50065;BME280;64524;47.848;-122.338;2022-10-26T06:47:26;100914.81;;;8.91;100.00
50065;BME280;64524;47.848;-122.338;2022-10-26T06:50:18;100917.60;;;8.91;100.00
50065;BME280;64524;47.848;-122.338;2022-10-26T06:55:45;100919.91;;;8.94;100.00
50065;BME280;64524;47.848;-122.338;2022-10-26T06:58:19;100918.52;;;8.94;100.00
50065;BME280;64524;47.848;-122.338;2022-10-26T07:00:51;100921.30;;;8.95;100.00
50065;BME280;64524;47.848;-122.338;2022-10-26T07:03:21;100928.04;;;8.94;100.00
50065;BME280;64524;47.848;-122.338;2022-10-26T07:05:50;100936.15;;;8.94;100.00
50065;BME280;64524;47.848;-122.338;2022-10-26T07:08:19;100942.92;;;8.95;100.00
50065;BME280;64524;47.848;-122.338;2022-10-26T07:10:48;100950.53;;;8.96;100.00
50065;BME280;64524;47.848;-122.338;2022-10-26T07:13:17;100947.73;;;8.95;100.00
50065;BME280;64524;47.848;-122.338;2022-10-26T07:15:45;100944.05;;;8.92;100.00
50065;BME280;64524;47.848;-122.338;2022-10-26T07:18:14;100938.92;;;8.87;100.00
50065;BME280;64524;47.848;-122.338;2022-10-26T07:20:43;100939.87;;;8.83;100.00
50065;BME280;64524;47.848;-122.338;2022-10-26T07:23:11;100932.77;;;8.82;100.00
50065;BME280;64524;47.848;-122.338;2022-10-26T07:25:40;100937.08;;;8.81;100.00
50065;BME280;64524;47.848;-122.338;2022-10-26T07:28:09;100936.73;;;8.81;100.00
50065;BME280;64524;47.848;-122.338;2022-10-26T07:30:39;100939.77;;;8.78;100.00
50065;BME280;64524;47.848;-122.338;2022-10-26T07:33:10;100946.95;;;8.76;100.00
50065;BME280;64524;47.848;-122.338;2022-10-26T07:35:39;100957.81;;;8.74;100.00
50065;BME280;64524;47.848;-122.338;2022-10-26T07:38:08;100954.86;;;8.74;100.00
50065;BME280;64524;47.848;-122.338;2022-10-26T07:40:39;100962.43;;;8.72;100.00
50065;BME280;64524;47.848;-122.338;2022-10-26T07:43:08;100961.55;;;8.72;100.00
50065;BME280;64524;47.848;-122.338;2022-10-26T07:45:36;100958.61;;;8.71;100.00
50065;BME280;64524;47.848;-122.338;2022-10-26T07:48:07;100962.93;;;8.71;100.00
50065;BME280;64524;47.848;-122.338;2022-10-26T07:50:36;100953.76;;;8.71;100.00
50065;BME280;64524;47.848;-122.338;2022-10-26T07:53:05;100961.19;;;8.71;100.00
50065;BME280;64524;47.848;-122.338;2022-10-26T07:55:33;100964.12;;;8.71;100.00
50065;BME280;64524;47.848;-122.338;2022-10-26T07:58:05;100965.03;;;8.73;100.00
50065;BME280;64524;47.848;-122.338;2022-10-26T08:00:34;100966.61;;;8.73;100.00
50065;BME280;64524;47.848;-122.338;2022-10-26T08:03:03;100969.20;;;8.73;100.00
50065;BME280;64524;47.848;-122.338;2022-10-26T08:05:31;100971.29;;;8.75;100.00
50065;BME280;64524;47.848;-122.338;2022-10-26T08:08:00;100971.48;;;8.75;100.00
50065;BME280;64524;47.848;-122.338;2022-10-26T08:10:29;100976.35;;;8.76;100.00
50065;BME280;64524;47.848;-122.338;2022-10-26T08:12:57;100976.20;;;8.77;100.00
50065;BME280;64524;47.848;-122.338;2022-10-26T08:15:26;100977.11;;;8.79;100.00
50065;BME280;64524;47.848;-122.338;2022-10-26T08:17:55;100984.41;;;8.81;100.00
50065;BME280;64524;47.848;-122.338;2022-10-26T08:20:24;100992.58;;;8.84;100.00
50065;BME280;64524;47.848;-122.338;2022-10-26T08:22:54;100997.61;;;8.85;100.00
50065;BME280;64524;47.848;-122.338;2022-10-26T08:25:23;101000.59;;;8.87;100.00
50065;BME280;64524;47.848;-122.338;2022-10-26T08:27:51;101004.70;;;8.85;100.00
50065;BME280;64524;47.848;-122.338;2022-10-26T08:30:21;101007.25;;;8.83;100.00
50065;BME280;64524;47.848;-122.338;2022-10-26T08:32:57;101017.08;;;8.82;100.00
50065;BME280;64524;47.848;-122.338;2022-10-26T08:35:27;101016.90;;;8.82;100.00
50065;BME280;64524;47.848;-122.338;2022-10-26T08:37:56;101019.64;;;8.81;100.00
50065;BME280;64524;47.848;-122.338;2022-10-26T08:40:30;101017.06;;;8.82;100.00
50065;BME280;64524;47.848;-122.338;2022-10-26T08:43:51;101018.80;;;8.82;100.00
50065;BME280;64524;47.848;-122.338;2022-10-26T08:46:23;101017.73;;;8.81;100.00
50065;BME280;64524;47.848;-122.338;2022-10-26T08:48:55;101027.28;;;8.82;100.00
50065;BME280;64524;47.848;-122.338;2022-10-26T08:51:31;101034.39;;;8.84;100.00
50065;BME280;64524;47.848;-122.338;2022-10-26T08:54:21;101038.37;;;8.85;100.00
50065;BME280;64524;47.848;-122.338;2022-10-26T08:56:56;101039.42;;;8.85;100.00
50065;BME280;64524;47.848;-122.338;2022-10-26T08:59:39;101053.41;;;8.84;100.00
50065;BME280;64524;47.848;-122.338;2022-10-26T09:02:13;101058.27;;;8.86;100.00
50065;BME280;64524;47.848;-122.338;2022-10-26T09:04:43;101055.31;;;8.85;100.00
50065;BME280;64524;47.848;-122.338;2022-10-26T09:07:39;101064.64;;;8.85;100.00
50065;BME280;64524;47.848;-122.338;2022-10-26T09:16:15;101063.20;;;8.83;100.00
50065;BME280;64524;47.848;-122.338;2022-10-26T09:21:27;101069.95;;;8.82;100.00
50065;BME280;64524;47.848;-122.338;2022-10-26T09:24:13;101075.27;;;8.81;100.00
50065;BME280;64524;47.848;-122.338;2022-10-26T09:26:53;101078.55;;;8.82;100.00
50065;BME280;64524;47.848;-122.338;2022-10-26T09:29:35;101085.14;;;8.82;100.00
50065;BME280;64524;47.848;-122.338;2022-10-26T09:32:46;101093.49;;;8.85;100.00
50065;BME280;64524;47.848;-122.338;2022-10-26T09:37:51;101091.04;;;8.84;100.00
50065;BME280;64524;47.848;-122.338;2022-10-26T09:40:30;101102.08;;;8.83;100.00
50065;BME280;64524;47.848;-122.338;2022-10-26T09:43:14;101112.29;;;8.83;100.00
50065;BME280;64524;47.848;-122.338;2022-10-26T09:45:48;101120.77;;;8.84;100.00
50065;BME280;64524;47.848;-122.338;2022-10-26T09:51:11;101122.52;;;8.85;100.00
50065;BME280;64524;47.848;-122.338;2022-10-26T09:53:39;101133.42;;;8.86;100.00
50065;BME280;64524;47.848;-122.338;2022-10-26T09:56:13;101122.91;;;8.88;100.00
50065;BME280;64524;47.848;-122.338;2022-10-26T10:01:35;101126.06;;;8.82;100.00
50065;BME280;64524;47.848;-122.338;2022-10-26T10:07:11;101135.55;;;8.81;100.00
50065;BME280;64524;47.848;-122.338;2022-10-26T10:09:41;101146.65;;;8.83;100.00
50065;BME280;64524;47.848;-122.338;2022-10-26T10:12:18;101148.94;;;8.85;100.00
50065;BME280;64524;47.848;-122.338;2022-10-26T10:14:58;101157.08;;;8.85;100.00
50065;BME280;64524;47.848;-122.338;2022-10-26T10:17:26;101162.20;;;8.90;100.00
50065;BME280;64524;47.848;-122.338;2022-10-26T10:20:06;101160.48;;;8.90;100.00
50065;BME280;64524;47.848;-122.338;2022-10-26T10:22:55;101169.33;;;8.92;100.00
50065;BME280;64524;47.848;-122.338;2022-10-26T10:25:37;101170.29;;;8.95;100.00
50065;BME280;64524;47.848;-122.338;2022-10-26T10:28:26;101170.33;;;8.97;100.00
50065;BME280;64524;47.848;-122.338;2022-10-26T10:31:00;101177.70;;;9.01;100.00
50065;BME280;64524;47.848;-122.338;2022-10-26T10:33:38;101177.95;;;9.04;100.00
50065;BME280;64524;47.848;-122.338;2022-10-26T10:36:10;101178.73;;;9.02;100.00
50065;BME280;64524;47.848;-122.338;2022-10-26T10:38:44;101183.80;;;8.96;100.00
50065;BME280;64524;47.848;-122.338;2022-10-26T10:41:23;101189.26;;;8.94;100.00
50065;BME280;64524;47.848;-122.338;2022-10-26T10:46:32;101190.01;;;8.90;100.00
50065;BME280;64524;47.848;-122.338;2022-10-26T10:49:04;101194.84;;;8.90;100.00
50065;BME280;64524;47.848;-122.338;2022-10-26T10:51:38;101199.20;;;8.91;100.00
50065;BME280;64524;47.848;-122.338;2022-10-26T10:54:24;101199.39;;;8.92;100.00
50065;BME280;64524;47.848;-122.338;2022-10-26T10:57:21;101199.20;;;8.91;100.00
50065;BME280;64524;47.848;-122.338;2022-10-26T11:00:07;101204.53;;;8.90;100.00
50065;BME280;64524;47.848;-122.338;2022-10-26T11:05:42;101217.59;;;8.87;100.00
50065;BME280;64524;47.848;-122.338;2022-10-26T11:08:34;101225.85;;;8.87;100.00
50065;BME280;64524;47.848;-122.338;2022-10-26T11:11:20;101225.44;;;8.84;100.00
50065;BME280;64524;47.848;-122.338;2022-10-26T11:16:36;101236.67;;;8.84;100.00
50065;BME280;64524;47.848;-122.338;2022-10-26T11:21:46;101239.97;;;8.84;100.00
50065;BME280;64524;47.848;-122.338;2022-10-26T11:24:43;101239.44;;;8.84;100.00
50065;BME280;64524;47.848;-122.338;2022-10-26T11:27:15;101239.63;;;8.84;100.00
50065;BME280;64524;47.848;-122.338;2022-10-26T11:29:53;101239.62;;;8.84;100.00
50065;BME280;64524;47.848;-122.338;2022-10-26T11:32:29;101241.33;;;8.83;100.00
50065;BME280;64524;47.848;-122.338;2022-10-26T11:40:41;101237.55;;;8.84;100.00
50065;BME280;64524;47.848;-122.338;2022-10-26T11:43:27;101236.46;;;8.82;100.00
50065;BME280;64524;47.848;-122.338;2022-10-26T11:49:12;101252.42;;;8.85;100.00
50065;BME280;64524;47.848;-122.338;2022-10-26T11:51:47;101251.44;;;8.87;100.00
50065;BME280;64524;47.848;-122.338;2022-10-26T11:54:43;101251.23;;;8.86;100.00
50065;BME280;64524;47.848;-122.338;2022-10-26T11:57:15;101265.77;;;8.86;100.00
50065;BME280;64524;47.848;-122.338;2022-10-26T12:00:16;101267.02;;;8.88;100.00
50065;BME280;64524;47.848;-122.338;2022-10-26T12:03:00;101267.59;;;8.90;100.00
50065;BME280;64524;47.848;-122.338;2022-10-26T12:08:27;101256.16;;;8.89;100.00
50065;BME280;64524;47.848;-122.338;2022-10-26T12:13:51;101258.34;;;8.87;100.00
50065;BME280;64524;47.848;-122.338;2022-10-26T12:16:43;101260.52;;;8.84;100.00
50065;BME280;64524;47.848;-122.338;2022-10-26T12:22:33;101281.39;;;8.83;100.00
50065;BME280;64524;47.848;-122.338;2022-10-26T12:25:18;101280.68;;;8.82;100.00
50065;BME280;64524;47.848;-122.338;2022-10-26T12:27:53;101281.73;;;8.82;100.00
50065;BME280;64524;47.848;-122.338;2022-10-26T12:30:33;101284.46;;;8.81;100.00
50065;BME280;64524;47.848;-122.338;2022-10-26T12:33:27;101287.04;;;8.81;100.00
50065;BME280;64524;47.848;-122.338;2022-10-26T12:35:57;101287.84;;;8.79;100.00
50065;BME280;64524;47.848;-122.338;2022-10-26T12:41:11;101292.73;;;8.80;100.00
50065;BME280;64524;47.848;-122.338;2022-10-26T12:43:45;101301.02;;;8.81;100.00
50065;BME280;64524;47.848;-122.338;2022-10-26T12:48:52;101322.15;;;8.82;100.00
50065;BME280;64524;47.848;-122.338;2022-10-26T13:07:36;101359.38;;;8.86;100.00
50065;BME280;64524;47.848;-122.338;2022-10-26T13:12:53;101373.98;;;8.83;100.00
50065;BME280;64524;47.848;-122.338;2022-10-26T13:15:28;101374.14;;;8.82;100.00
50065;BME280;64524;47.848;-122.338;2022-10-26T13:18:17;101381.51;;;8.80;100.00
50065;BME280;64524;47.848;-122.338;2022-10-26T13:21:19;101396.23;;;8.75;100.00
50065;BME280;64524;47.848;-122.338;2022-10-26T13:26:23;101401.10;;;8.71;100.00
50065;BME280;64524;47.848;-122.338;2022-10-26T13:28:54;101393.48;;;8.70;100.00
50065;BME280;64524;47.848;-122.338;2022-10-26T13:33:59;101403.67;;;8.71;100.00
50065;BME280;64524;47.848;-122.338;2022-10-26T13:39:22;101403.82;;;8.75;100.00
50065;BME280;64524;47.848;-122.338;2022-10-26T13:41:53;101406.30;;;8.77;100.00
50065;BME280;64524;47.848;-122.338;2022-10-26T13:44:39;101410.84;;;8.79;100.00
50065;BME280;64524;47.848;-122.338;2022-10-26T13:47:14;101423.34;;;8.81;100.00
50065;BME280;64524;47.848;-122.338;2022-10-26T13:49:51;101431.27;;;8.80;100.00
50065;BME280;64524;47.848;-122.338;2022-10-26T13:52:32;101430.29;;;8.77;100.00
50065;BME280;64524;47.848;-122.338;2022-10-26T13:55:26;101432.65;;;8.75;100.00
50065;BME280;64524;47.848;-122.338;2022-10-26T14:01:15;101438.02;;;8.64;100.00
50065;BME280;64524;47.848;-122.338;2022-10-26T14:03:44;101438.08;;;8.55;100.00
50065;BME280;64524;47.848;-122.338;2022-10-26T14:08:49;101433.16;;;8.47;100.00
50065;BME280;64524;47.848;-122.338;2022-10-26T14:11:21;101435.61;;;8.42;100.00
50065;BME280;64524;47.848;-122.338;2022-10-26T14:13:54;101440.47;;;8.39;100.00
50065;BME280;64524;47.848;-122.338;2022-10-26T14:16:26;101444.08;;;8.38;100.00
50065;BME280;64524;47.848;-122.338;2022-10-26T14:18:56;101439.02;;;8.36;100.00
50065;BME280;64524;47.848;-122.338;2022-10-26T14:21:25;101441.63;;;8.37;100.00
50065;BME280;64524;47.848;-122.338;2022-10-26T14:23:57;101444.92;;;8.38;100.00
50065;BME280;64524;47.848;-122.338;2022-10-26T14:26:28;101451.48;;;8.38;100.00
50065;BME280;64524;47.848;-122.338;2022-10-26T14:29:00;101458.91;;;8.38;100.00
50065;BME280;64524;47.848;-122.338;2022-10-26T14:31:31;101464.42;;;8.37;100.00
50065;BME280;64524;47.848;-122.338;2022-10-26T14:34:02;101462.87;;;8.38;100.00
50065;BME280;64524;47.848;-122.338;2022-10-26T14:36:40;101464.77;;;8.37;100.00
50065;BME280;64524;47.848;-122.338;2022-10-26T14:39:27;101467.84;;;8.37;100.00
50065;BME280;64524;47.848;-122.338;2022-10-26T14:42:00;101463.13;;;8.35;100.00
50065;BME280;64524;47.848;-122.338;2022-10-26T14:44:29;101467.45;;;8.35;100.00
50065;BME280;64524;47.848;-122.338;2022-10-26T14:46:58;101470.91;;;8.35;100.00
50065;BME280;64524;47.848;-122.338;2022-10-26T14:49:27;101466.78;;;8.36;100.00
50065;BME280;64524;47.848;-122.338;2022-10-26T14:52:04;101469.39;;;8.36;100.00
50065;BME280;64524;47.848;-122.338;2022-10-26T14:54:33;101476.95;;;8.35;100.00
50065;BME280;64524;47.848;-122.338;2022-10-26T14:57:01;101482.39;;;8.33;100.00
50065;BME280;64524;47.848;-122.338;2022-10-26T14:59:35;101481.75;;;8.34;100.00
50065;BME280;64524;47.848;-122.338;2022-10-26T15:02:17;101483.20;;;8.36;100.00
50065;BME280;64524;47.848;-122.338;2022-10-26T15:05:43;101480.40;;;8.40;100.00